Decoded Metar for PAFS (NIKOLAI in AK, USA) (IATA:NIB) | Meteo·Mobile Aviation Weather
aviador You're here:

PAFS Decoded Metar

NIKOLAI in AK, USA
Report Time2018-12-17 13:01:00
UTC Time2018-12-17 14:00:48
Flight Rules vfr VFR
Wind200° at 03 kt
W.Decomp.*RWY 22: 2.3 kt HW 1.9 kt LCW
W.Rank200° ranks 10
Current wind is below 200° avg. (6.7)
Visibility9999 m
Phenomena:Light Snow
Clouds:Few 080 Hf
Overcast 100 Hf
Expected CloudBase > 800 ft AGL from Temp-Dew spread
Ceiling10,000 ft
Temp-21°C (ISA -35)
Dew Point-23°C (84% RH)
AAT-25.8°C
QNH982 hPa
Density Alt-2,992 ft
Elevation413 ft
Report Wrong Elevation
Raw Report
PAFS 171301Z AUTO 20003KT 9SM -SN FEW080 OVC100 M21/M23 A2899=

Extra information for PAFS:More info

Metar Taf Metar & Taf Last 4 Metars F.Rules Stats Wind Profile Meteogram Temp Stats Airport Information Weather charts Add Link Nearby VenuesMetar ALERT Operation Metar Decoded Social comments

AIRNAV info for PAFS